sensor_id;sensor_type;location;lat;lon;timestamp;temperature;humidity
73939;DHT22;62291;47.554;8.504;2023-07-16T00:01:05;18.80;99.90
73939;DHT22;62291;47.554;8.504;2023-07-16T00:03:31;18.80;99.90
73939;DHT22;62291;47.554;8.504;2023-07-16T00:05:57;18.70;99.90
73939;DHT22;62291;47.554;8.504;2023-07-16T00:08:23;18.70;99.90
73939;DHT22;62291;47.554;8.504;2023-07-16T00:10:48;18.60;99.90
73939;DHT22;62291;47.554;8.504;2023-07-16T00:13:14;18.50;99.90
73939;DHT22;62291;47.554;8.504;2023-07-16T00:15:40;18.30;99.90
73939;DHT22;62291;47.554;8.504;2023-07-16T00:18:05;18.20;99.90
73939;DHT22;62291;47.554;8.504;2023-07-16T00:20:32;18.10;99.90
73939;DHT22;62291;47.554;8.504;2023-07-16T00:22:58;18.00;99.90
73939;DHT22;62291;47.554;8.504;2023-07-16T00:25:23;17.90;99.90
73939;DHT22;62291;47.554;8.504;2023-07-16T00:27:49;17.90;99.90
73939;DHT22;62291;47.554;8.504;2023-07-16T00:30:16;17.80;99.90
73939;DHT22;62291;47.554;8.504;2023-07-16T00:32:42;17.90;99.90
73939;DHT22;62291;47.554;8.504;2023-07-16T00:35:08;17.80;99.90
73939;DHT22;62291;47.554;8.504;2023-07-16T00:37:34;17.80;99.90
73939;DHT22;62291;47.554;8.504;2023-07-16T00:40:00;17.80;99.90
73939;DHT22;62291;47.554;8.504;2023-07-16T00:42:26;17.80;99.90
73939;DHT22;62291;47.554;8.504;2023-07-16T00:44:51;17.80;99.90
73939;DHT22;62291;47.554;8.504;2023-07-16T00:47:17;17.90;99.90
73939;DHT22;62291;47.554;8.504;2023-07-16T00:49:43;17.90;99.90
73939;DHT22;62291;47.554;8.504;2023-07-16T00:52:11;17.90;99.90
73939;DHT22;62291;47.554;8.504;2023-07-16T00:54:39;17.90;99.90
73939;DHT22;62291;47.554;8.504;2023-07-16T00:57:05;17.90;99.90
73939;DHT22;62291;47.554;8.504;2023-07-16T00:59:31;17.90;99.90
73939;DHT22;62291;47.554;8.504;2023-07-16T01:01:56;17.80;99.90
73939;DHT22;62291;47.554;8.504;2023-07-16T01:04:22;17.90;99.90
73939;DHT22;62291;47.554;8.504;2023-07-16T01:06:51;17.80;99.90
73939;DHT22;62291;47.554;8.504;2023-07-16T01:09:20;17.80;99.90
73939;DHT22;62291;47.554;8.504;2023-07-16T01:11:47;17.90;99.90
73939;DHT22;62291;47.554;8.504;2023-07-16T01:14:16;17.80;99.90
73939;DHT22;62291;47.554;8.504;2023-07-16T01:16:42;17.80;99.90
73939;DHT22;62291;47.554;8.504;2023-07-16T01:19:08;17.80;99.90
73939;DHT22;62291;47.554;8.504;2023-07-16T01:29:51;17.90;99.90
73939;DHT22;62291;47.554;8.504;2023-07-16T01:32:17;17.90;99.90
73939;DHT22;62291;47.554;8.504;2023-07-16T01:34:43;18.00;99.90
73939;DHT22;62291;47.554;8.504;2023-07-16T01:37:10;17.90;99.90
73939;DHT22;62291;47.554;8.504;2023-07-16T01:39:36;18.00;99.90
73939;DHT22;62291;47.554;8.504;2023-07-16T01:42:02;17.90;99.90
73939;DHT22;62291;47.554;8.504;2023-07-16T01:44:28;17.90;99.90
73939;DHT22;62291;47.554;8.504;2023-07-16T01:49:32;18.00;99.90
73939;DHT22;62291;47.554;8.504;2023-07-16T01:51:59;18.00;99.90
73939;DHT22;62291;47.554;8.504;2023-07-16T01:54:25;18.00;99.90
73939;DHT22;62291;47.554;8.504;2023-07-16T01:56:50;18.00;99.90
73939;DHT22;62291;47.554;8.504;2023-07-16T01:59:16;17.90;99.90
73939;DHT22;62291;47.554;8.504;2023-07-16T02:01:42;17.90;99.90
73939;DHT22;62291;47.554;8.504;2023-07-16T02:04:07;17.90;99.90
73939;DHT22;62291;47.554;8.504;2023-07-16T02:06:33;18.00;99.90
73939;DHT22;62291;47.554;8.504;2023-07-16T02:08:59;18.00;99.90
73939;DHT22;62291;47.554;8.504;2023-07-16T02:11:24;18.00;99.90
73939;DHT22;62291;47.554;8.504;2023-07-16T02:13:50;18.00;99.90
73939;DHT22;62291;47.554;8.504;2023-07-16T02:16:15;18.00;99.90
73939;DHT22;62291;47.554;8.504;2023-07-16T02:18:41;17.90;99.90
73939;DHT22;62291;47.554;8.504;2023-07-16T02:21:07;17.90;99.90
73939;DHT22;62291;47.554;8.504;2023-07-16T02:23:32;17.90;99.90
73939;DHT22;62291;47.554;8.504;2023-07-16T02:25:58;17.90;99.90
73939;DHT22;62291;47.554;8.504;2023-07-16T02:28:24;17.80;99.90
73939;DHT22;62291;47.554;8.504;2023-07-16T02:30:50;17.80;99.90
73939;DHT22;62291;47.554;8.504;2023-07-16T02:33:16;17.80;99.90
73939;DHT22;62291;47.554;8.504;2023-07-16T02:35:46;17.80;99.90
73939;DHT22;62291;47.554;8.504;2023-07-16T02:38:13;17.80;99.90
73939;DHT22;62291;47.554;8.504;2023-07-16T02:40:43;17.80;99.90
73939;DHT22;62291;47.554;8.504;2023-07-16T02:43:09;17.80;99.90
73939;DHT22;62291;47.554;8.504;2023-07-16T02:45:35;17.80;99.90
73939;DHT22;62291;47.554;8.504;2023-07-16T02:48:00;17.80;99.90
73939;DHT22;62291;47.554;8.504;2023-07-16T02:50:26;17.70;99.90
73939;DHT22;62291;47.554;8.504;2023-07-16T02:52:52;17.70;99.90
73939;DHT22;62291;47.554;8.504;2023-07-16T02:55:17;17.70;99.90
73939;DHT22;62291;47.554;8.504;2023-07-16T02:57:43;17.70;99.90
73939;DHT22;62291;47.554;8.504;2023-07-16T03:00:09;17.70;99.90
73939;DHT22;62291;47.554;8.504;2023-07-16T03:02:35;17.70;99.90
73939;DHT22;62291;47.554;8.504;2023-07-16T03:05:00;17.60;99.90
73939;DHT22;62291;47.554;8.504;2023-07-16T03:07:26;17.70;99.90
73939;DHT22;62291;47.554;8.504;2023-07-16T03:09:52;17.70;99.90
73939;DHT22;62291;47.554;8.504;2023-07-16T03:12:17;17.70;99.90
73939;DHT22;62291;47.554;8.504;2023-07-16T03:14:43;17.70;99.90
73939;DHT22;62291;47.554;8.504;2023-07-16T03:17:09;17.70;99.90
73939;DHT22;62291;47.554;8.504;2023-07-16T03:19:34;17.70;99.90
73939;DHT22;62291;47.554;8.504;2023-07-16T03:22:00;17.70;99.90
73939;DHT22;62291;47.554;8.504;2023-07-16T03:24:26;17.70;99.90
73939;DHT22;62291;47.554;8.504;2023-07-16T03:26:52;17.70;99.90
73939;DHT22;62291;47.554;8.504;2023-07-16T03:29:17;17.70;99.90
73939;DHT22;62291;47.554;8.504;2023-07-16T03:31:43;17.80;99.90
73939;DHT22;62291;47.554;8.504;2023-07-16T03:34:09;17.70;99.90
73939;DHT22;62291;47.554;8.504;2023-07-16T03:36:34;17.70;99.90
73939;DHT22;62291;47.554;8.504;2023-07-16T03:39:00;17.60;99.90
73939;DHT22;62291;47.554;8.504;2023-07-16T03:41:26;17.60;99.90
73939;DHT22;62291;47.554;8.504;2023-07-16T03:43:51;17.50;99.90
73939;DHT22;62291;47.554;8.504;2023-07-16T03:46:17;17.50;99.90
73939;DHT22;62291;47.554;8.504;2023-07-16T03:48:43;17.50;99.90
73939;DHT22;62291;47.554;8.504;2023-07-16T03:51:08;17.40;99.90
73939;DHT22;62291;47.554;8.504;2023-07-16T03:53:34;17.40;99.90
73939;DHT22;62291;47.554;8.504;2023-07-16T03:56:00;17.40;99.90
73939;DHT22;62291;47.554;8.504;2023-07-16T03:58:25;17.40;99.90
73939;DHT22;62291;47.554;8.504;2023-07-16T04:00:53;17.50;99.90
73939;DHT22;62291;47.554;8.504;2023-07-16T04:03:19;17.40;99.90
73939;DHT22;62291;47.554;8.504;2023-07-16T04:05:44;17.40;99.90
73939;DHT22;62291;47.554;8.504;2023-07-16T04:08:10;17.50;99.90
73939;DHT22;62291;47.554;8.504;2023-07-16T04:10:36;17.60;99.90
73939;DHT22;62291;47.554;8.504;2023-07-16T04:13:01;17.60;99.90
73939;DHT22;62291;47.554;8.504;2023-07-16T04:15:27;17.60;99.90
73939;DHT22;62291;47.554;8.504;2023-07-16T04:17:53;17.60;99.90
73939;DHT22;62291;47.554;8.504;2023-07-16T04:20:18;17.70;99.90
73939;DHT22;62291;47.554;8.504;2023-07-16T04:22:44;17.70;99.90
73939;DHT22;62291;47.554;8.504;2023-07-16T04:25:10;17.70;99.90
73939;DHT22;62291;47.554;8.504;2023-07-16T04:27:37;17.70;99.90
73939;DHT22;62291;47.554;8.504;2023-07-16T04:30:03;17.60;99.90
73939;DHT22;62291;47.554;8.504;2023-07-16T04:32:28;17.70;99.90
73939;DHT22;62291;47.554;8.504;2023-07-16T04:34:54;17.80;99.90
73939;DHT22;62291;47.554;8.504;2023-07-16T04:37:20;17.90;99.90
73939;DHT22;62291;47.554;8.504;2023-07-16T04:39:46;18.00;99.90
73939;DHT22;62291;47.554;8.504;2023-07-16T04:42:11;18.00;99.90
73939;DHT22;62291;47.554;8.504;2023-07-16T04:44:37;18.00;99.90
73939;DHT22;62291;47.554;8.504;2023-07-16T04:47:03;17.90;99.90
73939;DHT22;62291;47.554;8.504;2023-07-16T04:49:29;17.90;99.90
73939;DHT22;62291;47.554;8.504;2023-07-16T04:51:54;18.00;99.90
73939;DHT22;62291;47.554;8.504;2023-07-16T04:54:20;18.00;99.90
73939;DHT22;62291;47.554;8.504;2023-07-16T04:56:45;18.00;99.90
73939;DHT22;62291;47.554;8.504;2023-07-16T04:59:11;18.10;99.90
73939;DHT22;62291;47.554;8.504;2023-07-16T05:01:37;18.20;99.90
73939;DHT22;62291;47.554;8.504;2023-07-16T05:04:03;18.30;99.90
73939;DHT22;62291;47.554;8.504;2023-07-16T05:06:28;18.50;99.90
73939;DHT22;62291;47.554;8.504;2023-07-16T05:08:54;18.60;99.90
73939;DHT22;62291;47.554;8.504;2023-07-16T05:11:20;18.60;99.90
73939;DHT22;62291;47.554;8.504;2023-07-16T05:13:45;18.60;99.90
73939;DHT22;62291;47.554;8.504;2023-07-16T05:16:11;18.70;99.90
73939;DHT22;62291;47.554;8.504;2023-07-16T05:18:37;19.00;99.90
73939;DHT22;62291;47.554;8.504;2023-07-16T05:21:02;20.00;99.90
73939;DHT22;62291;47.554;8.504;2023-07-16T05:23:28;20.40;99.90
73939;DHT22;62291;47.554;8.504;2023-07-16T05:25:54;20.90;99.90
73939;DHT22;62291;47.554;8.504;2023-07-16T05:28:19;20.70;99.90
73939;DHT22;62291;47.554;8.504;2023-07-16T05:30:45;20.50;99.90
73939;DHT22;62291;47.554;8.504;2023-07-16T05:33:11;20.30;99.90
73939;DHT22;62291;47.554;8.504;2023-07-16T05:35:38;20.00;99.90
73939;DHT22;62291;47.554;8.504;2023-07-16T05:38:04;19.80;99.90
73939;DHT22;62291;47.554;8.504;2023-07-16T05:40:30;19.60;99.90
73939;DHT22;62291;47.554;8.504;2023-07-16T05:42:55;19.50;99.90
73939;DHT22;62291;47.554;8.504;2023-07-16T05:45:21;19.50;99.90
73939;DHT22;62291;47.554;8.504;2023-07-16T05:47:47;19.60;99.90
73939;DHT22;62291;47.554;8.504;2023-07-16T05:50:12;19.70;99.90
73939;DHT22;62291;47.554;8.504;2023-07-16T05:52:38;20.40;99.90
73939;DHT22;62291;47.554;8.504;2023-07-16T05:55:04;20.80;99.90
73939;DHT22;62291;47.554;8.504;2023-07-16T05:57:30;21.30;99.90
73939;DHT22;62291;47.554;8.504;2023-07-16T05:59:56;21.60;99.90
73939;DHT22;62291;47.554;8.504;2023-07-16T06:02:22;21.90;99.90
73939;DHT22;62291;47.554;8.504;2023-07-16T06:04:47;22.70;99.90
73939;DHT22;62291;47.554;8.504;2023-07-16T06:07:13;23.60;99.90
73939;DHT22;62291;47.554;8.504;2023-07-16T06:09:39;23.60;99.90
73939;DHT22;62291;47.554;8.504;2023-07-16T06:12:04;23.40;99.90
73939;DHT22;62291;47.554;8.504;2023-07-16T06:14:30;22.80;99.90
73939;DHT22;62291;47.554;8.504;2023-07-16T06:16:56;22.10;99.90
73939;DHT22;62291;47.554;8.504;2023-07-16T06:19:21;21.50;99.90
73939;DHT22;62291;47.554;8.504;2023-07-16T06:21:47;21.40;99.90
73939;DHT22;62291;47.554;8.504;2023-07-16T06:24:13;21.70;99.90
73939;DHT22;62291;47.554;8.504;2023-07-16T06:26:38;22.30;99.90
73939;DHT22;62291;47.554;8.504;2023-07-16T06:29:04;22.30;99.90
73939;DHT22;62291;47.554;8.504;2023-07-16T06:31:30;22.50;99.90
73939;DHT22;62291;47.554;8.504;2023-07-16T06:33:55;22.80;99.90
73939;DHT22;62291;47.554;8.504;2023-07-16T06:36:21;23.10;99.90
73939;DHT22;62291;47.554;8.504;2023-07-16T06:38:47;23.40;99.90
73939;DHT22;62291;47.554;8.504;2023-07-16T06:41:13;23.20;99.90
73939;DHT22;62291;47.554;8.504;2023-07-16T06:43:38;23.00;99.90
73939;DHT22;62291;47.554;8.504;2023-07-16T06:46:04;22.90;99.90
73939;DHT22;62291;47.554;8.504;2023-07-16T06:48:30;23.70;99.90
73939;DHT22;62291;47.554;8.504;2023-07-16T06:50:55;24.10;99.90
73939;DHT22;62291;47.554;8.504;2023-07-16T06:53:21;23.60;99.90
73939;DHT22;62291;47.554;8.504;2023-07-16T06:55:50;22.80;99.90
73939;DHT22;62291;47.554;8.504;2023-07-16T06:58:16;23.20;99.90
73939;DHT22;62291;47.554;8.504;2023-07-16T07:00:42;23.20;99.90
73939;DHT22;62291;47.554;8.504;2023-07-16T07:03:08;22.70;99.90
73939;DHT22;62291;47.554;8.504;2023-07-16T07:05:34;22.20;99.90
73939;DHT22;62291;47.554;8.504;2023-07-16T07:08:01;22.10;99.90
73939;DHT22;62291;47.554;8.504;2023-07-16T07:10:27;21.80;99.90
73939;DHT22;62291;47.554;8.504;2023-07-16T07:12:53;21.70;99.90
73939;DHT22;62291;47.554;8.504;2023-07-16T07:15:18;21.60;99.90
73939;DHT22;62291;47.554;8.504;2023-07-16T07:17:44;21.50;99.90
73939;DHT22;62291;47.554;8.504;2023-07-16T07:20:12;21.30;99.90
73939;DHT22;62291;47.554;8.504;2023-07-16T07:22:38;21.30;99.90
73939;DHT22;62291;47.554;8.504;2023-07-16T07:25:04;21.50;99.90
73939;DHT22;62291;47.554;8.504;2023-07-16T07:27:30;22.50;99.90
73939;DHT22;62291;47.554;8.504;2023-07-16T07:29:56;23.40;99.90
73939;DHT22;62291;47.554;8.504;2023-07-16T07:32:22;24.40;99.90
73939;DHT22;62291;47.554;8.504;2023-07-16T07:34:49;24.30;99.90
73939;DHT22;62291;47.554;8.504;2023-07-16T07:37:15;24.10;99.90
73939;DHT22;62291;47.554;8.504;2023-07-16T07:39:41;24.50;99.90
73939;DHT22;62291;47.554;8.504;2023-07-16T07:42:07;24.50;99.90
73939;DHT22;62291;47.554;8.504;2023-07-16T07:44:33;24.10;99.90
73939;DHT22;62291;47.554;8.504;2023-07-16T07:46:58;24.00;99.90
73939;DHT22;62291;47.554;8.504;2023-07-16T07:49:24;24.80;99.90
73939;DHT22;62291;47.554;8.504;2023-07-16T07:51:50;24.60;99.90
73939;DHT22;62291;47.554;8.504;2023-07-16T07:54:16;24.40;99.90
73939;DHT22;62291;47.554;8.504;2023-07-16T07:56:42;25.20;99.90
73939;DHT22;62291;47.554;8.504;2023-07-16T07:59:07;25.40;99.90
73939;DHT22;62291;47.554;8.504;2023-07-16T08:01:33;25.50;99.90
73939;DHT22;62291;47.554;8.504;2023-07-16T08:03:59;25.40;99.90
73939;DHT22;62291;47.554;8.504;2023-07-16T08:06:25;25.20;99.90
73939;DHT22;62291;47.554;8.504;2023-07-16T08:08:51;24.60;99.90
73939;DHT22;62291;47.554;8.504;2023-07-16T08:11:17;24.40;99.90
73939;DHT22;62291;47.554;8.504;2023-07-16T08:13:43;24.20;99.90
73939;DHT22;62291;47.554;8.504;2023-07-16T08:16:08;23.80;99.90
73939;DHT22;62291;47.554;8.504;2023-07-16T08:18:35;23.30;99.90
73939;DHT22;62291;47.554;8.504;2023-07-16T08:21:00;23.00;99.90
73939;DHT22;62291;47.554;8.504;2023-07-16T08:23:26;22.80;99.90
73939;DHT22;62291;47.554;8.504;2023-07-16T08:25:52;22.80;99.90
73939;DHT22;62291;47.554;8.504;2023-07-16T08:28:17;22.80;99.90
73939;DHT22;62291;47.554;8.504;2023-07-16T08:30:46;22.70;99.90
73939;DHT22;62291;47.554;8.504;2023-07-16T08:33:12;22.60;99.90
73939;DHT22;62291;47.554;8.504;2023-07-16T08:35:40;22.60;99.90
73939;DHT22;62291;47.554;8.504;2023-07-16T08:38:05;22.90;99.90
73939;DHT22;62291;47.554;8.504;2023-07-16T08:40:36;22.90;99.90
73939;DHT22;62291;47.554;8.504;2023-07-16T08:43:03;22.90;99.90
73939;DHT22;62291;47.554;8.504;2023-07-16T08:45:31;23.00;99.90
73939;DHT22;62291;47.554;8.504;2023-07-16T08:47:57;23.20;99.90
73939;DHT22;62291;47.554;8.504;2023-07-16T08:50:24;23.50;99.90
73939;DHT22;62291;47.554;8.504;2023-07-16T08:52:50;23.70;99.90
73939;DHT22;62291;47.554;8.504;2023-07-16T08:55:17;23.70;99.90
73939;DHT22;62291;47.554;8.504;2023-07-16T08:57:43;23.70;99.90
73939;DHT22;62291;47.554;8.504;2023-07-16T09:00:09;23.80;99.90
73939;DHT22;62291;47.554;8.504;2023-07-16T09:02:35;23.60;99.90
73939;DHT22;62291;47.554;8.504;2023-07-16T09:05:02;23.60;99.90
73939;DHT22;62291;47.554;8.504;2023-07-16T09:07:29;24.00;99.90
73939;DHT22;62291;47.554;8.504;2023-07-16T09:09:59;23.90;99.90
73939;DHT22;62291;47.554;8.504;2023-07-16T09:12:25;24.20;99.90
73939;DHT22;62291;47.554;8.504;2023-07-16T09:14:51;24.10;99.90
73939;DHT22;62291;47.554;8.504;2023-07-16T09:17:24;24.00;99.90
73939;DHT22;62291;47.554;8.504;2023-07-16T09:19:51;23.80;99.90
73939;DHT22;62291;47.554;8.504;2023-07-16T09:22:20;23.50;99.90
73939;DHT22;62291;47.554;8.504;2023-07-16T09:24:46;23.40;99.90
73939;DHT22;62291;47.554;8.504;2023-07-16T09:27:13;23.20;99.90
73939;DHT22;62291;47.554;8.504;2023-07-16T09:29:39;22.90;99.90
73939;DHT22;62291;47.554;8.504;2023-07-16T09:32:05;22.60;99.90
73939;DHT22;62291;47.554;8.504;2023-07-16T09:34:31;22.30;99.90
73939;DHT22;62291;47.554;8.504;2023-07-16T09:36:58;22.20;99.90
73939;DHT22;62291;47.554;8.504;2023-07-16T09:39:25;22.50;99.90
73939;DHT22;62291;47.554;8.504;2023-07-16T09:41:51;22.70;99.90
73939;DHT22;62291;47.554;8.504;2023-07-16T09:44:18;22.90;99.90
73939;DHT22;62291;47.554;8.504;2023-07-16T09:46:45;23.40;99.90
73939;DHT22;62291;47.554;8.504;2023-07-16T09:49:10;23.70;99.90
73939;DHT22;62291;47.554;8.504;2023-07-16T09:51:37;23.60;99.90
73939;DHT22;62291;47.554;8.504;2023-07-16T09:54:04;23.70;99.90
73939;DHT22;62291;47.554;8.504;2023-07-16T09:56:41;24.10;99.90
73939;DHT22;62291;47.554;8.504;2023-07-16T09:59:13;24.70;98.70
73939;DHT22;62291;47.554;8.504;2023-07-16T10:01:40;24.70;99.70
73939;DHT22;62291;47.554;8.504;2023-07-16T10:04:17;25.30;98.60
73939;DHT22;62291;47.554;8.504;2023-07-16T10:07:00;25.60;97.60
73939;DHT22;62291;47.554;8.504;2023-07-16T10:09:51;25.70;97.70
73939;DHT22;62291;47.554;8.504;2023-07-16T10:12:19;25.60;98.20
73939;DHT22;62291;47.554;8.504;2023-07-16T10:14:56;25.80;98.70
73939;DHT22;62291;47.554;8.504;2023-07-16T10:17:30;25.50;98.00
73939;DHT22;62291;47.554;8.504;2023-07-16T10:22:33;25.50;98.00
73939;DHT22;62291;47.554;8.504;2023-07-16T10:25:01;24.80;97.90
73939;DHT22;62291;47.554;8.504;2023-07-16T10:27:28;24.70;97.60
73939;DHT22;62291;47.554;8.504;2023-07-16T10:29:54;25.20;98.20
73939;DHT22;62291;47.554;8.504;2023-07-16T10:32:20;26.10;96.90
73939;DHT22;62291;47.554;8.504;2023-07-16T10:34:46;27.10;98.70
73939;DHT22;62291;47.554;8.504;2023-07-16T10:37:12;28.10;94.60
73939;DHT22;62291;47.554;8.504;2023-07-16T10:39:51;28.80;92.80
73939;DHT22;62291;47.554;8.504;2023-07-16T10:42:19;28.20;92.10
73939;DHT22;62291;47.554;8.504;2023-07-16T10:44:48;27.70;95.40
73939;DHT22;62291;47.554;8.504;2023-07-16T10:47:22;27.00;94.90
73939;DHT22;62291;47.554;8.504;2023-07-16T10:49:49;26.40;96.80
73939;DHT22;62291;47.554;8.504;2023-07-16T10:52:15;26.00;97.30
73939;DHT22;62291;47.554;8.504;2023-07-16T10:54:41;25.80;96.90
73939;DHT22;62291;47.554;8.504;2023-07-16T10:57:07;25.50;96.50
73939;DHT22;62291;47.554;8.504;2023-07-16T10:59:32;25.30;97.40
73939;DHT22;62291;47.554;8.504;2023-07-16T11:01:58;25.10;97.70
73939;DHT22;62291;47.554;8.504;2023-07-16T11:04:24;25.10;99.90
73939;DHT22;62291;47.554;8.504;2023-07-16T11:06:50;25.10;97.90
73939;DHT22;62291;47.554;8.504;2023-07-16T11:09:16;25.20;98.10
73939;DHT22;62291;47.554;8.504;2023-07-16T11:11:41;25.10;97.90
73939;DHT22;62291;47.554;8.504;2023-07-16T11:14:07;24.80;98.10
73939;DHT22;62291;47.554;8.504;2023-07-16T11:16:37;24.70;98.70
73939;DHT22;62291;47.554;8.504;2023-07-16T11:19:07;24.40;98.60
73939;DHT22;62291;47.554;8.504;2023-07-16T11:21:36;24.40;99.00
73939;DHT22;62291;47.554;8.504;2023-07-16T11:24:15;24.10;99.50
73939;DHT22;62291;47.554;8.504;2023-07-16T11:26:54;24.10;99.10
73939;DHT22;62291;47.554;8.504;2023-07-16T11:29:23;24.00;99.40
73939;DHT22;62291;47.554;8.504;2023-07-16T11:31:51;24.20;99.90
73939;DHT22;62291;47.554;8.504;2023-07-16T11:34:17;24.10;99.00
73939;DHT22;62291;47.554;8.504;2023-07-16T11:36:44;24.20;99.90
73939;DHT22;62291;47.554;8.504;2023-07-16T11:39:13;24.40;99.90
73939;DHT22;62291;47.554;8.504;2023-07-16T11:41:38;24.20;99.90
73939;DHT22;62291;47.554;8.504;2023-07-16T11:44:07;24.20;99.40
73939;DHT22;62291;47.554;8.504;2023-07-16T11:46:34;24.30;99.90
73939;DHT22;62291;47.554;8.504;2023-07-16T11:49:00;24.30;99.90
73939;DHT22;62291;47.554;8.504;2023-07-16T11:51:26;24.20;99.10
73939;DHT22;62291;47.554;8.504;2023-07-16T11:53:52;24.40;99.90
73939;DHT22;62291;47.554;8.504;2023-07-16T11:56:19;24.60;99.20
73939;DHT22;62291;47.554;8.504;2023-07-16T11:58:45;25.00;99.80
73939;DHT22;62291;47.554;8.504;2023-07-16T12:01:11;25.30;98.20
73939;DHT22;62291;47.554;8.504;2023-07-16T12:03:37;25.50;99.20
73939;DHT22;62291;47.554;8.504;2023-07-16T12:06:02;25.60;97.10
73939;DHT22;62291;47.554;8.504;2023-07-16T12:08:28;25.20;97.90
73939;DHT22;62291;47.554;8.504;2023-07-16T12:10:54;24.80;97.80
73939;DHT22;62291;47.554;8.504;2023-07-16T12:13:20;24.70;98.60
73939;DHT22;62291;47.554;8.504;2023-07-16T12:15:46;24.90;98.00
73939;DHT22;62291;47.554;8.504;2023-07-16T12:18:12;25.40;97.40
73939;DHT22;62291;47.554;8.504;2023-07-16T12:20:37;25.60;98.40
73939;DHT22;62291;47.554;8.504;2023-07-16T12:23:04;25.80;98.50
73939;DHT22;62291;47.554;8.504;2023-07-16T12:25:30;25.90;98.00
73939;DHT22;62291;47.554;8.504;2023-07-16T12:27:56;26.00;98.30
73939;DHT22;62291;47.554;8.504;2023-07-16T12:30:23;26.20;96.90
73939;DHT22;62291;47.554;8.504;2023-07-16T12:32:50;25.60;96.60
73939;DHT22;62291;47.554;8.504;2023-07-16T12:35:16;25.60;97.40
73939;DHT22;62291;47.554;8.504;2023-07-16T12:37:41;25.50;97.70
73939;DHT22;62291;47.554;8.504;2023-07-16T12:40:07;25.40;97.20
73939;DHT22;62291;47.554;8.504;2023-07-16T12:42:34;25.30;98.20
73939;DHT22;62291;47.554;8.504;2023-07-16T12:45:01;25.20;97.90
73939;DHT22;62291;47.554;8.504;2023-07-16T12:47:27;25.30;98.30
73939;DHT22;62291;47.554;8.504;2023-07-16T12:49:52;25.50;97.90
73939;DHT22;62291;47.554;8.504;2023-07-16T12:52:18;25.80;96.90
73939;DHT22;62291;47.554;8.504;2023-07-16T12:54:43;26.00;97.90
73939;DHT22;62291;47.554;8.504;2023-07-16T12:57:09;26.20;96.90
73939;DHT22;62291;47.554;8.504;2023-07-16T12:59:35;26.20;97.10
73939;DHT22;62291;47.554;8.504;2023-07-16T13:02:00;26.00;97.40
73939;DHT22;62291;47.554;8.504;2023-07-16T13:04:26;25.80;97.50
73939;DHT22;62291;47.554;8.504;2023-07-16T13:06:52;25.80;96.40
73939;DHT22;62291;47.554;8.504;2023-07-16T13:09:18;26.00;96.50
73939;DHT22;62291;47.554;8.504;2023-07-16T13:11:44;26.00;95.00
73939;DHT22;62291;47.554;8.504;2023-07-16T13:14:09;25.70;96.20
73939;DHT22;62291;47.554;8.504;2023-07-16T13:16:35;25.80;95.30
73939;DHT22;62291;47.554;8.504;2023-07-16T13:19:01;26.20;96.70
73939;DHT22;62291;47.554;8.504;2023-07-16T13:21:26;26.30;96.60
73939;DHT22;62291;47.554;8.504;2023-07-16T13:23:52;26.10;96.10
73939;DHT22;62291;47.554;8.504;2023-07-16T13:26:18;26.00;97.50
73939;DHT22;62291;47.554;8.504;2023-07-16T13:28:43;26.50;97.50
73939;DHT22;62291;47.554;8.504;2023-07-16T13:31:09;26.90;94.20
73939;DHT22;62291;47.554;8.504;2023-07-16T13:33:35;26.70;95.20
73939;DHT22;62291;47.554;8.504;2023-07-16T13:36:01;26.40;96.00
73939;DHT22;62291;47.554;8.504;2023-07-16T13:38:30;26.00;94.30
73939;DHT22;62291;47.554;8.504;2023-07-16T13:40:56;25.90;97.90
73939;DHT22;62291;47.554;8.504;2023-07-16T13:43:22;26.10;97.20
73939;DHT22;62291;47.554;8.504;2023-07-16T13:45:47;26.30;97.60
73939;DHT22;62291;47.554;8.504;2023-07-16T13:48:13;26.40;96.90
73939;DHT22;62291;47.554;8.504;2023-07-16T13:50:39;26.50;95.30
73939;DHT22;62291;47.554;8.504;2023-07-16T13:53:04;26.40;95.80
73939;DHT22;62291;47.554;8.504;2023-07-16T13:55:30;26.20;96.80
73939;DHT22;62291;47.554;8.504;2023-07-16T13:57:56;26.10;98.00
73939;DHT22;62291;47.554;8.504;2023-07-16T14:00:22;26.10;96.40
73939;DHT22;62291;47.554;8.504;2023-07-16T14:02:48;26.20;95.20
73939;DHT22;62291;47.554;8.504;2023-07-16T14:05:13;26.10;96.90
73939;DHT22;62291;47.554;8.504;2023-07-16T14:07:39;26.20;96.50
73939;DHT22;62291;47.554;8.504;2023-07-16T14:10:07;26.10;95.90
73939;DHT22;62291;47.554;8.504;2023-07-16T14:12:33;25.70;95.60
73939;DHT22;62291;47.554;8.504;2023-07-16T14:15:00;25.60;96.20
73939;DHT22;62291;47.554;8.504;2023-07-16T14:17:26;25.60;98.90
73939;DHT22;62291;47.554;8.504;2023-07-16T14:19:51;25.50;97.60
73939;DHT22;62291;47.554;8.504;2023-07-16T14:22:17;25.60;97.50
73939;DHT22;62291;47.554;8.504;2023-07-16T14:24:43;25.80;96.20
73939;DHT22;62291;47.554;8.504;2023-07-16T14:27:09;25.80;96.90
73939;DHT22;62291;47.554;8.504;2023-07-16T14:29:35;25.60;96.10
73939;DHT22;62291;47.554;8.504;2023-07-16T14:32:01;25.50;96.90
73939;DHT22;62291;47.554;8.504;2023-07-16T14:34:27;25.40;95.80
73939;DHT22;62291;47.554;8.504;2023-07-16T14:36:53;25.30;97.40
73939;DHT22;62291;47.554;8.504;2023-07-16T14:39:18;25.30;97.70
73939;DHT22;62291;47.554;8.504;2023-07-16T14:41:44;25.30;97.00
73939;DHT22;62291;47.554;8.504;2023-07-16T14:44:10;25.40;98.30
73939;DHT22;62291;47.554;8.504;2023-07-16T14:46:36;25.50;98.50
73939;DHT22;62291;47.554;8.504;2023-07-16T14:49:03;25.60;98.00
73939;DHT22;62291;47.554;8.504;2023-07-16T14:51:29;25.80;98.20
73939;DHT22;62291;47.554;8.504;2023-07-16T14:53:56;25.70;97.30
73939;DHT22;62291;47.554;8.504;2023-07-16T14:56:22;25.70;98.60
73939;DHT22;62291;47.554;8.504;2023-07-16T14:58:48;25.80;96.90
73939;DHT22;62291;47.554;8.504;2023-07-16T15:01:14;25.90;96.60
73939;DHT22;62291;47.554;8.504;2023-07-16T15:03:39;25.90;95.80
73939;DHT22;62291;47.554;8.504;2023-07-16T15:06:08;25.80;95.80
73939;DHT22;62291;47.554;8.504;2023-07-16T15:08:35;25.60;95.70
73939;DHT22;62291;47.554;8.504;2023-07-16T15:11:02;25.30;96.50
73939;DHT22;62291;47.554;8.504;2023-07-16T15:13:28;25.40;98.10
73939;DHT22;62291;47.554;8.504;2023-07-16T15:15:57;25.50;97.80
73939;DHT22;62291;47.554;8.504;2023-07-16T15:18:23;25.60;97.40
73939;DHT22;62291;47.554;8.504;2023-07-16T15:20:58;25.60;96.10
73939;DHT22;62291;47.554;8.504;2023-07-16T15:23:27;25.40;97.80
73939;DHT22;62291;47.554;8.504;2023-07-16T15:25:54;25.20;97.50
73939;DHT22;62291;47.554;8.504;2023-07-16T15:28:20;25.10;97.90
73939;DHT22;62291;47.554;8.504;2023-07-16T15:30:47;25.10;97.60
73939;DHT22;62291;47.554;8.504;2023-07-16T15:33:13;25.20;98.10
73939;DHT22;62291;47.554;8.504;2023-07-16T15:35:38;25.00;97.20
73939;DHT22;62291;47.554;8.504;2023-07-16T15:38:04;25.00;98.20